sensor_id;sensor_type;location;lat;lon;timestamp;temperature;humidity
21403;DHT22;10862;51.886;17.078;2024-03-23T00:53:42;10.30;99.90
21403;DHT22;10862;51.886;17.078;2024-03-23T00:56:08;10.30;99.90
21403;DHT22;10862;51.886;17.078;2024-03-23T00:58:33;10.10;99.90
21403;DHT22;10862;51.886;17.078;2024-03-23T01:01:00;10.10;99.90
21403;DHT22;10862;51.886;17.078;2024-03-23T01:03:26;10.00;99.90
21403;DHT22;10862;51.886;17.078;2024-03-23T01:05:51;10.00;99.90
21403;DHT22;10862;51.886;17.078;2024-03-23T01:08:19;9.90;99.90
21403;DHT22;10862;51.886;17.078;2024-03-23T01:10:57;9.90;99.90
21403;DHT22;10862;51.886;17.078;2024-03-23T01:13:22;9.90;99.90
21403;DHT22;10862;51.886;17.078;2024-03-23T01:15:50;9.80;99.90
21403;DHT22;10862;51.886;17.078;2024-03-23T01:18:17;9.90;99.90
21403;DHT22;10862;51.886;17.078;2024-03-23T01:20:43;9.90;99.90
21403;DHT22;10862;51.886;17.078;2024-03-23T01:23:08;9.90;99.90
21403;DHT22;10862;51.886;17.078;2024-03-23T01:25:34;9.90;99.90
21403;DHT22;10862;51.886;17.078;2024-03-23T01:28:00;9.90;99.90
21403;DHT22;10862;51.886;17.078;2024-03-23T01:30:25;9.90;99.90
21403;DHT22;10862;51.886;17.078;2024-03-23T01:32:51;9.90;99.90
21403;DHT22;10862;51.886;17.078;2024-03-23T01:35:16;9.90;99.90
21403;DHT22;10862;51.886;17.078;2024-03-23T01:37:42;9.90;99.90
21403;DHT22;10862;51.886;17.078;2024-03-23T01:40:08;9.90;99.90
21403;DHT22;10862;51.886;17.078;2024-03-23T01:42:33;9.90;99.90
21403;DHT22;10862;51.886;17.078;2024-03-23T01:44:59;9.90;99.90
21403;DHT22;10862;51.886;17.078;2024-03-23T01:47:25;10.00;99.90
21403;DHT22;10862;51.886;17.078;2024-03-23T01:49:50;10.10;99.90
21403;DHT22;10862;51.886;17.078;2024-03-23T01:52:17;10.20;99.90
21403;DHT22;10862;51.886;17.078;2024-03-23T01:54:43;10.30;99.90
21403;DHT22;10862;51.886;17.078;2024-03-23T01:57:10;10.20;99.90
21403;DHT22;10862;51.886;17.078;2024-03-23T01:59:36;10.10;99.90
21403;DHT22;10862;51.886;17.078;2024-03-23T02:02:01;10.10;99.90
21403;DHT22;10862;51.886;17.078;2024-03-23T02:04:27;10.10;99.90
21403;DHT22;10862;51.886;17.078;2024-03-23T02:06:52;10.20;99.90
21403;DHT22;10862;51.886;17.078;2024-03-23T02:09:18;10.20;99.90
21403;DHT22;10862;51.886;17.078;2024-03-23T02:11:44;10.20;99.90
21403;DHT22;10862;51.886;17.078;2024-03-23T02:14:09;10.30;99.90
21403;DHT22;10862;51.886;17.078;2024-03-23T02:16:35;10.30;99.90
21403;DHT22;10862;51.886;17.078;2024-03-23T02:19:00;10.40;99.90
21403;DHT22;10862;51.886;17.078;2024-03-23T02:21:26;10.50;99.90
21403;DHT22;10862;51.886;17.078;2024-03-23T02:23:53;10.50;99.90
21403;DHT22;10862;51.886;17.078;2024-03-23T02:26:18;10.50;99.90
21403;DHT22;10862;51.886;17.078;2024-03-23T02:28:44;10.40;99.90
21403;DHT22;10862;51.886;17.078;2024-03-23T02:31:10;10.40;99.90
21403;DHT22;10862;51.886;17.078;2024-03-23T02:33:35;10.40;99.90
21403;DHT22;10862;51.886;17.078;2024-03-23T02:36:03;10.50;99.90
21403;DHT22;10862;51.886;17.078;2024-03-23T02:38:29;10.40;99.90
21403;DHT22;10862;51.886;17.078;2024-03-23T02:40:54;10.20;99.90
21403;DHT22;10862;51.886;17.078;2024-03-23T02:43:20;10.20;99.90
21403;DHT22;10862;51.886;17.078;2024-03-23T02:45:46;10.10;99.90
21403;DHT22;10862;51.886;17.078;2024-03-23T02:48:12;9.90;99.90
21403;DHT22;10862;51.886;17.078;2024-03-23T02:50:38;9.80;99.90
21403;DHT22;10862;51.886;17.078;2024-03-23T02:53:03;9.90;99.90
21403;DHT22;10862;51.886;17.078;2024-03-23T02:55:29;9.90;99.90
21403;DHT22;10862;51.886;17.078;2024-03-23T02:57:54;9.80;99.90
21403;DHT22;10862;51.886;17.078;2024-03-23T03:00:21;9.70;99.90
21403;DHT22;10862;51.886;17.078;2024-03-23T03:02:46;9.60;99.90
21403;DHT22;10862;51.886;17.078;2024-03-23T03:05:12;9.60;99.90
21403;DHT22;10862;51.886;17.078;2024-03-23T03:07:39;9.70;99.90
21403;DHT22;10862;51.886;17.078;2024-03-23T03:10:06;9.70;99.90
21403;DHT22;10862;51.886;17.078;2024-03-23T03:12:34;9.70;99.90
21403;DHT22;10862;51.886;17.078;2024-03-23T03:14:59;9.70;99.90
21403;DHT22;10862;51.886;17.078;2024-03-23T03:17:25;9.70;99.90
21403;DHT22;10862;51.886;17.078;2024-03-23T03:19:50;9.80;99.90
21403;DHT22;10862;51.886;17.078;2024-03-23T03:22:21;9.80;99.90
21403;DHT22;10862;51.886;17.078;2024-03-23T03:24:47;9.80;99.90
21403;DHT22;10862;51.886;17.078;2024-03-23T03:27:12;9.80;99.90
21403;DHT22;10862;51.886;17.078;2024-03-23T03:29:38;9.90;99.90
21403;DHT22;10862;51.886;17.078;2024-03-23T03:32:03;9.90;99.90
21403;DHT22;10862;51.886;17.078;2024-03-23T03:34:29;10.00;99.90
21403;DHT22;10862;51.886;17.078;2024-03-23T03:36:56;10.00;99.90
21403;DHT22;10862;51.886;17.078;2024-03-23T03:39:22;10.10;99.90
21403;DHT22;10862;51.886;17.078;2024-03-23T03:41:48;10.00;99.90
21403;DHT22;10862;51.886;17.078;2024-03-23T03:44:14;9.90;99.90
21403;DHT22;10862;51.886;17.078;2024-03-23T03:46:39;9.90;99.90
21403;DHT22;10862;51.886;17.078;2024-03-23T03:49:05;9.90;99.90
21403;DHT22;10862;51.886;17.078;2024-03-23T03:51:31;9.90;99.90
21403;DHT22;10862;51.886;17.078;2024-03-23T03:53:56;9.90;99.90
21403;DHT22;10862;51.886;17.078;2024-03-23T03:56:22;9.90;99.90
21403;DHT22;10862;51.886;17.078;2024-03-23T03:58:48;9.90;99.90
21403;DHT22;10862;51.886;17.078;2024-03-23T04:01:14;10.10;99.90
21403;DHT22;10862;51.886;17.078;2024-03-23T04:03:39;10.50;99.90
21403;DHT22;10862;51.886;17.078;2024-03-23T04:06:12;10.40;99.90
21403;DHT22;10862;51.886;17.078;2024-03-23T04:08:37;10.50;99.90
21403;DHT22;10862;51.886;17.078;2024-03-23T04:11:03;10.30;99.90
21403;DHT22;10862;51.886;17.078;2024-03-23T04:13:29;10.20;99.90
21403;DHT22;10862;51.886;17.078;2024-03-23T04:15:55;10.30;99.90
21403;DHT22;10862;51.886;17.078;2024-03-23T04:18:21;10.40;99.90
21403;DHT22;10862;51.886;17.078;2024-03-23T04:20:48;10.40;99.90
21403;DHT22;10862;51.886;17.078;2024-03-23T04:23:13;10.40;99.90
21403;DHT22;10862;51.886;17.078;2024-03-23T04:25:39;10.60;99.90
21403;DHT22;10862;51.886;17.078;2024-03-23T04:28:05;10.30;99.90
21403;DHT22;10862;51.886;17.078;2024-03-23T04:30:31;10.20;99.90
21403;DHT22;10862;51.886;17.078;2024-03-23T04:32:57;10.40;99.90
21403;DHT22;10862;51.886;17.078;2024-03-23T04:35:24;10.50;99.90
21403;DHT22;10862;51.886;17.078;2024-03-23T04:37:51;10.30;99.90
21403;DHT22;10862;51.886;17.078;2024-03-23T04:40:18;10.00;99.90
21403;DHT22;10862;51.886;17.078;2024-03-23T04:42:44;10.10;99.90
21403;DHT22;10862;51.886;17.078;2024-03-23T04:45:09;10.10;99.90
21403;DHT22;10862;51.886;17.078;2024-03-23T04:47:37;10.20;99.90
21403;DHT22;10862;51.886;17.078;2024-03-23T04:50:04;10.10;99.90
21403;DHT22;10862;51.886;17.078;2024-03-23T04:52:30;9.90;99.90
21403;DHT22;10862;51.886;17.078;2024-03-23T04:54:56;9.90;99.90
21403;DHT22;10862;51.886;17.078;2024-03-23T04:57:21;9.90;99.90
21403;DHT22;10862;51.886;17.078;2024-03-23T04:59:47;10.00;99.90
21403;DHT22;10862;51.886;17.078;2024-03-23T05:02:13;10.10;99.90
21403;DHT22;10862;51.886;17.078;2024-03-23T05:04:39;10.20;99.90
21403;DHT22;10862;51.886;17.078;2024-03-23T05:07:06;10.40;99.90
21403;DHT22;10862;51.886;17.078;2024-03-23T05:09:32;10.60;99.90
21403;DHT22;10862;51.886;17.078;2024-03-23T05:11:59;10.60;99.90
21403;DHT22;10862;51.886;17.078;2024-03-23T05:14:26;10.40;99.90
21403;DHT22;10862;51.886;17.078;2024-03-23T05:16:52;10.20;99.90
21403;DHT22;10862;51.886;17.078;2024-03-23T05:19:17;10.20;99.90
21403;DHT22;10862;51.886;17.078;2024-03-23T05:21:43;10.20;99.90
21403;DHT22;10862;51.886;17.078;2024-03-23T05:24:09;10.40;99.90
21403;DHT22;10862;51.886;17.078;2024-03-23T05:26:35;10.40;99.90
21403;DHT22;10862;51.886;17.078;2024-03-23T05:29:01;10.30;99.90
21403;DHT22;10862;51.886;17.078;2024-03-23T05:31:29;10.20;99.90
21403;DHT22;10862;51.886;17.078;2024-03-23T05:33:55;9.90;99.90
21403;DHT22;10862;51.886;17.078;2024-03-23T05:36:21;9.90;99.90
21403;DHT22;10862;51.886;17.078;2024-03-23T05:38:47;10.00;99.90
21403;DHT22;10862;51.886;17.078;2024-03-23T05:41:13;9.80;99.90
21403;DHT22;10862;51.886;17.078;2024-03-23T05:43:39;9.80;99.90
21403;DHT22;10862;51.886;17.078;2024-03-23T05:46:04;9.60;99.90
21403;DHT22;10862;51.886;17.078;2024-03-23T05:48:31;9.50;99.90
21403;DHT22;10862;51.886;17.078;2024-03-23T05:50:57;9.50;99.90
21403;DHT22;10862;51.886;17.078;2024-03-23T05:53:23;9.30;99.90
21403;DHT22;10862;51.886;17.078;2024-03-23T05:55:50;9.40;99.90
21403;DHT22;10862;51.886;17.078;2024-03-23T05:58:16;9.50;99.90
21403;DHT22;10862;51.886;17.078;2024-03-23T06:00:43;9.80;99.90
21403;DHT22;10862;51.886;17.078;2024-03-23T06:03:09;9.90;99.90
21403;DHT22;10862;51.886;17.078;2024-03-23T06:05:35;10.20;99.90
21403;DHT22;10862;51.886;17.078;2024-03-23T06:08:01;10.30;99.90
21403;DHT22;10862;51.886;17.078;2024-03-23T06:10:27;10.30;99.90
21403;DHT22;10862;51.886;17.078;2024-03-23T06:12:53;10.40;99.90
21403;DHT22;10862;51.886;17.078;2024-03-23T06:15:19;10.60;99.90
21403;DHT22;10862;51.886;17.078;2024-03-23T06:17:45;10.50;99.90
21403;DHT22;10862;51.886;17.078;2024-03-23T06:20:11;10.40;99.90
21403;DHT22;10862;51.886;17.078;2024-03-23T06:22:36;10.30;99.90
21403;DHT22;10862;51.886;17.078;2024-03-23T06:25:02;10.30;99.90
21403;DHT22;10862;51.886;17.078;2024-03-23T06:27:28;10.20;99.90
21403;DHT22;10862;51.886;17.078;2024-03-23T06:29:54;10.40;99.90
21403;DHT22;10862;51.886;17.078;2024-03-23T06:32:20;10.60;99.90
21403;DHT22;10862;51.886;17.078;2024-03-23T06:34:46;10.70;99.90
21403;DHT22;10862;51.886;17.078;2024-03-23T06:37:11;11.10;99.90
21403;DHT22;10862;51.886;17.078;2024-03-23T06:39:37;11.20;99.90
21403;DHT22;10862;51.886;17.078;2024-03-23T06:42:04;11.20;99.90
21403;DHT22;10862;51.886;17.078;2024-03-23T06:44:30;11.10;99.90
21403;DHT22;10862;51.886;17.078;2024-03-23T06:46:56;11.00;99.90
21403;DHT22;10862;51.886;17.078;2024-03-23T06:49:23;11.10;99.90
21403;DHT22;10862;51.886;17.078;2024-03-23T06:51:49;11.30;99.90
21403;DHT22;10862;51.886;17.078;2024-03-23T06:54:16;11.40;99.90
21403;DHT22;10862;51.886;17.078;2024-03-23T06:56:41;11.80;99.90
21403;DHT22;10862;51.886;17.078;2024-03-23T06:59:07;11.80;99.90
21403;DHT22;10862;51.886;17.078;2024-03-23T07:01:33;11.90;99.90
21403;DHT22;10862;51.886;17.078;2024-03-23T07:03:58;12.10;99.90
21403;DHT22;10862;51.886;17.078;2024-03-23T07:06:24;12.00;99.90
21403;DHT22;10862;51.886;17.078;2024-03-23T07:08:49;12.10;99.90
21403;DHT22;10862;51.886;17.078;2024-03-23T07:11:22;12.30;19.10
21403;DHT22;10862;51.886;17.078;2024-03-23T07:13:50;11.90;1.00
21403;DHT22;10862;51.886;17.078;2024-03-23T07:16:16;11.90;1.00
21403;DHT22;10862;51.886;17.078;2024-03-23T07:18:42;12.10;10.80
21403;DHT22;10862;51.886;17.078;2024-03-23T07:21:08;12.30;1.00
21403;DHT22;10862;51.886;17.078;2024-03-23T07:23:33;12.40;1.00
21403;DHT22;10862;51.886;17.078;2024-03-23T07:26:01;12.40;1.00
21403;DHT22;10862;51.886;17.078;2024-03-23T07:28:27;12.20;1.00
21403;DHT22;10862;51.886;17.078;2024-03-23T07:31:03;12.10;1.00
21403;DHT22;10862;51.886;17.078;2024-03-23T07:33:29;12.20;1.00
21403;DHT22;10862;51.886;17.078;2024-03-23T07:53:13;12.40;1.00
21403;DHT22;10862;51.886;17.078;2024-03-23T07:55:39;12.40;1.00
21403;DHT22;10862;51.886;17.078;2024-03-23T07:58:04;12.60;99.90
21403;DHT22;10862;51.886;17.078;2024-03-23T08:00:36;12.70;99.90
21403;DHT22;10862;51.886;17.078;2024-03-23T08:06:24;13.10;1.00
21403;DHT22;10862;51.886;17.078;2024-03-23T08:08:55;13.40;99.90
21403;DHT22;10862;51.886;17.078;2024-03-23T08:11:36;13.60;1.00
21403;DHT22;10862;51.886;17.078;2024-03-23T08:20:25;14.10;1.00
21403;DHT22;10862;51.886;17.078;2024-03-23T08:22:52;14.00;6.70
21403;DHT22;10862;51.886;17.078;2024-03-23T08:25:18;14.50;1.00
21403;DHT22;10862;51.886;17.078;2024-03-23T08:27:44;14.70;99.90
21403;DHT22;10862;51.886;17.078;2024-03-23T08:30:10;14.30;99.90
21403;DHT22;10862;51.886;17.078;2024-03-23T08:32:37;14.00;1.00
21403;DHT22;10862;51.886;17.078;2024-03-23T08:35:02;14.00;1.00
21403;DHT22;10862;51.886;17.078;2024-03-23T08:37:28;13.60;99.90
21403;DHT22;10862;51.886;17.078;2024-03-23T08:39:54;14.10;1.00
21403;DHT22;10862;51.886;17.078;2024-03-23T08:42:19;14.90;1.00
21403;DHT22;10862;51.886;17.078;2024-03-23T08:44:47;15.10;99.90
21403;DHT22;10862;51.886;17.078;2024-03-23T08:47:15;14.90;1.00
21403;DHT22;10862;51.886;17.078;2024-03-23T08:49:41;14.80;99.90
21403;DHT22;10862;51.886;17.078;2024-03-23T08:52:07;14.50;91.90
21403;DHT22;10862;51.886;17.078;2024-03-23T08:54:33;14.70;1.00
21403;DHT22;10862;51.886;17.078;2024-03-23T08:56:59;15.90;1.00
21403;DHT22;10862;51.886;17.078;2024-03-23T08:59:24;17.10;1.00
21403;DHT22;10862;51.886;17.078;2024-03-23T09:01:50;17.10;99.90
21403;DHT22;10862;51.886;17.078;2024-03-23T09:04:15;15.90;1.00
21403;DHT22;10862;51.886;17.078;2024-03-23T09:06:44;16.00;1.00
21403;DHT22;10862;51.886;17.078;2024-03-23T09:09:10;16.20;1.00
21403;DHT22;10862;51.886;17.078;2024-03-23T09:11:35;16.20;99.90
21403;DHT22;10862;51.886;17.078;2024-03-23T09:14:01;16.30;99.90
21403;DHT22;10862;51.886;17.078;2024-03-23T09:16:26;16.00;99.90
21403;DHT22;10862;51.886;17.078;2024-03-23T09:18:52;15.70;1.00
21403;DHT22;10862;51.886;17.078;2024-03-23T09:21:18;15.30;1.00
21403;DHT22;10862;51.886;17.078;2024-03-23T09:23:44;15.00;99.90
21403;DHT22;10862;51.886;17.078;2024-03-23T09:26:10;14.80;99.90
21403;DHT22;10862;51.886;17.078;2024-03-23T09:28:35;14.50;1.00
21403;DHT22;10862;51.886;17.078;2024-03-23T09:31:08;14.20;99.90
21403;DHT22;10862;51.886;17.078;2024-03-23T09:33:35;14.20;1.00
21403;DHT22;10862;51.886;17.078;2024-03-23T09:36:04;14.50;1.00
21403;DHT22;10862;51.886;17.078;2024-03-23T09:38:30;14.50;99.90
21403;DHT22;10862;51.886;17.078;2024-03-23T09:40:57;14.70;99.90
21403;DHT22;10862;51.886;17.078;2024-03-23T09:43:22;14.30;99.90
21403;DHT22;10862;51.886;17.078;2024-03-23T09:45:49;13.70;1.00
21403;DHT22;10862;51.886;17.078;2024-03-23T09:48:15;13.70;1.00
21403;DHT22;10862;51.886;17.078;2024-03-23T09:50:42;14.10;99.90
21403;DHT22;10862;51.886;17.078;2024-03-23T09:53:09;14.20;99.90
21403;DHT22;10862;51.886;17.078;2024-03-23T09:55:35;14.30;1.00
21403;DHT22;10862;51.886;17.078;2024-03-23T09:58:02;14.20;1.00
21403;DHT22;10862;51.886;17.078;2024-03-23T10:00:27;14.00;1.00
21403;DHT22;10862;51.886;17.078;2024-03-23T10:02:55;14.20;99.90
21403;DHT22;10862;51.886;17.078;2024-03-23T10:05:23;14.40;1.00
21403;DHT22;10862;51.886;17.078;2024-03-23T10:07:50;14.40;99.90
21403;DHT22;10862;51.886;17.078;2024-03-23T10:10:16;14.30;1.00
21403;DHT22;10862;51.886;17.078;2024-03-23T10:12:46;13.90;77.90
21403;DHT22;10862;51.886;17.078;2024-03-23T10:15:22;14.10;8.80
21403;DHT22;10862;51.886;17.078;2024-03-23T10:17:48;13.50;1.00
21403;DHT22;10862;51.886;17.078;2024-03-23T10:20:19;13.40;1.00
21403;DHT22;10862;51.886;17.078;2024-03-23T10:22:45;13.50;99.90
21403;DHT22;10862;51.886;17.078;2024-03-23T10:25:11;13.20;99.90
21403;DHT22;10862;51.886;17.078;2024-03-23T10:27:37;13.20;1.00
21403;DHT22;10862;51.886;17.078;2024-03-23T10:30:13;13.20;1.00
21403;DHT22;10862;51.886;17.078;2024-03-23T10:32:42;13.20;1.00
21403;DHT22;10862;51.886;17.078;2024-03-23T10:35:19;12.90;99.90
21403;DHT22;10862;51.886;17.078;2024-03-23T10:37:45;12.90;99.90
21403;DHT22;10862;51.886;17.078;2024-03-23T10:40:15;12.60;1.00
21403;DHT22;10862;51.886;17.078;2024-03-23T10:42:41;12.50;1.00
21403;DHT22;10862;51.886;17.078;2024-03-23T10:45:07;12.60;1.00
21403;DHT22;10862;51.886;17.078;2024-03-23T10:47:35;12.60;1.00
21403;DHT22;10862;51.886;17.078;2024-03-23T10:50:01;12.60;1.00
21403;DHT22;10862;51.886;17.078;2024-03-23T10:52:28;12.60;1.00
21403;DHT22;10862;51.886;17.078;2024-03-23T10:54:55;12.60;1.00
21403;DHT22;10862;51.886;17.078;2024-03-23T10:57:42;12.50;1.00
21403;DHT22;10862;51.886;17.078;2024-03-23T11:00:10;12.40;1.00
21403;DHT22;10862;51.886;17.078;2024-03-23T11:02:36;12.30;99.90
21403;DHT22;10862;51.886;17.078;2024-03-23T11:07:51;12.50;99.90
21403;DHT22;10862;51.886;17.078;2024-03-23T11:10:26;12.40;99.90
21403;DHT22;10862;51.886;17.078;2024-03-23T11:12:53;12.30;99.90
21403;DHT22;10862;51.886;17.078;2024-03-23T11:15:19;12.10;99.90
21403;DHT22;10862;51.886;17.078;2024-03-23T11:18:03;11.90;99.90
21403;DHT22;10862;51.886;17.078;2024-03-23T11:20:33;12.00;99.90
21403;DHT22;10862;51.886;17.078;2024-03-23T11:22:59;12.10;99.90
21403;DHT22;10862;51.886;17.078;2024-03-23T11:25:26;12.00;99.90
21403;DHT22;10862;51.886;17.078;2024-03-23T11:27:53;12.00;99.90
21403;DHT22;10862;51.886;17.078;2024-03-23T11:30:27;12.00;99.90
21403;DHT22;10862;51.886;17.078;2024-03-23T11:32:56;12.10;99.90
21403;DHT22;10862;51.886;17.078;2024-03-23T11:35:37;12.20;99.90
21403;DHT22;10862;51.886;17.078;2024-03-23T11:40:39;11.90;99.90
21403;DHT22;10862;51.886;17.078;2024-03-23T11:43:07;12.00;99.90
21403;DHT22;10862;51.886;17.078;2024-03-23T11:45:38;12.20;99.90
21403;DHT22;10862;51.886;17.078;2024-03-23T11:51:41;13.80;99.90
21403;DHT22;10862;51.886;17.078;2024-03-23T11:54:29;14.10;99.90
21403;DHT22;10862;51.886;17.078;2024-03-23T12:00:31;13.10;99.90
21403;DHT22;10862;51.886;17.078;2024-03-23T12:03:04;13.50;99.90
21403;DHT22;10862;51.886;17.078;2024-03-23T12:05:33;12.70;92.60
21403;DHT22;10862;51.886;17.078;2024-03-23T12:11:12;13.50;99.90
21403;DHT22;10862;51.886;17.078;2024-03-23T12:13:39;12.80;99.90
21403;DHT22;10862;51.886;17.078;2024-03-23T12:16:10;13.00;99.90
21403;DHT22;10862;51.886;17.078;2024-03-23T12:18:37;13.00;99.90
21403;DHT22;10862;51.886;17.078;2024-03-23T12:21:04;12.50;99.90
21403;DHT22;10862;51.886;17.078;2024-03-23T12:23:29;12.90;99.90
21403;DHT22;10862;51.886;17.078;2024-03-23T12:25:55;12.60;99.90
21403;DHT22;10862;51.886;17.078;2024-03-23T12:28:20;12.30;99.90
21403;DHT22;10862;51.886;17.078;2024-03-23T12:30:46;12.70;99.90
21403;DHT22;10862;51.886;17.078;2024-03-23T12:33:11;13.10;99.90
21403;DHT22;10862;51.886;17.078;2024-03-23T12:35:37;12.70;99.90
21403;DHT22;10862;51.886;17.078;2024-03-23T12:38:22;12.80;99.90
21403;DHT22;10862;51.886;17.078;2024-03-23T12:41:11;13.00;99.90
21403;DHT22;10862;51.886;17.078;2024-03-23T12:44:08;12.70;99.90
21403;DHT22;10862;51.886;17.078;2024-03-23T12:46:42;12.70;99.90
21403;DHT22;10862;51.886;17.078;2024-03-23T12:49:37;12.70;99.90
21403;DHT22;10862;51.886;17.078;2024-03-23T12:52:40;12.60;99.90
21403;DHT22;10862;51.886;17.078;2024-03-23T12:55:37;13.00;99.90
21403;DHT22;10862;51.886;17.078;2024-03-23T12:58:02;13.20;99.90
21403;DHT22;10862;51.886;17.078;2024-03-23T13:00:40;13.50;99.90
21403;DHT22;10862;51.886;17.078;2024-03-23T13:03:21;13.80;99.90
21403;DHT22;10862;51.886;17.078;2024-03-23T13:05:52;14.10;99.90
21403;DHT22;10862;51.886;17.078;2024-03-23T13:08:17;13.90;47.00
21403;DHT22;10862;51.886;17.078;2024-03-23T13:10:58;13.80;1.00
21403;DHT22;10862;51.886;17.078;2024-03-23T13:13:34;13.90;1.00
21403;DHT22;10862;51.886;17.078;2024-03-23T13:16:06;13.80;1.00
21403;DHT22;10862;51.886;17.078;2024-03-23T13:18:40;13.80;1.00
21403;DHT22;10862;51.886;17.078;2024-03-23T13:21:55;13.70;1.00
21403;DHT22;10862;51.886;17.078;2024-03-23T13:24:30;13.40;99.90
21403;DHT22;10862;51.886;17.078;2024-03-23T13:31:02;13.20;99.90
21403;DHT22;10862;51.886;17.078;2024-03-23T13:44:14;12.70;99.90
21403;DHT22;10862;51.886;17.078;2024-03-23T13:46:43;12.50;99.90
21403;DHT22;10862;51.886;17.078;2024-03-23T13:52:05;8.50;99.90
21403;DHT22;10862;51.886;17.078;2024-03-23T13:54:41;8.10;99.90
21403;DHT22;10862;51.886;17.078;2024-03-23T13:57:14;7.90;99.90
21403;DHT22;10862;51.886;17.078;2024-03-23T13:59:39;7.40;99.90
21403;DHT22;10862;51.886;17.078;2024-03-23T14:02:05;7.10;99.90
21403;DHT22;10862;51.886;17.078;2024-03-23T14:05:01;7.00;99.90
21403;DHT22;10862;51.886;17.078;2024-03-23T14:07:29;6.80;99.90
21403;DHT22;10862;51.886;17.078;2024-03-23T14:10:15;6.50;99.90
21403;DHT22;10862;51.886;17.078;2024-03-23T14:12:40;6.50;99.90
21403;DHT22;10862;51.886;17.078;2024-03-23T14:15:07;6.40;99.90
21403;DHT22;10862;51.886;17.078;2024-03-23T14:17:40;6.30;99.90
21403;DHT22;10862;51.886;17.078;2024-03-23T14:20:06;6.10;99.90
21403;DHT22;10862;51.886;17.078;2024-03-23T14:22:34;6.20;99.90
21403;DHT22;10862;51.886;17.078;2024-03-23T14:25:00;5.90;99.90
21403;DHT22;10862;51.886;17.078;2024-03-23T14:27:25;5.80;99.90
21403;DHT22;10862;51.886;17.078;2024-03-23T14:29:51;5.70;99.90
21403;DHT22;10862;51.886;17.078;2024-03-23T14:32:17;5.60;99.90
21403;DHT22;10862;51.886;17.078;2024-03-23T14:34:42;5.60;99.90
21403;DHT22;10862;51.886;17.078;2024-03-23T14:37:08;5.60;99.90
21403;DHT22;10862;51.886;17.078;2024-03-23T14:39:33;5.50;99.90
21403;DHT22;10862;51.886;17.078;2024-03-23T14:42:04;5.50;99.90
21403;DHT22;10862;51.886;17.078;2024-03-23T14:44:30;5.70;99.90
21403;DHT22;10862;51.886;17.078;2024-03-23T14:46:56;5.50;99.90
21403;DHT22;10862;51.886;17.078;2024-03-23T14:49:21;5.50;99.90
21403;DHT22;10862;51.886;17.078;2024-03-23T14:51:47;5.40;99.90
21403;DHT22;10862;51.886;17.078;2024-03-23T14:54:12;5.60;99.90
21403;DHT22;10862;51.886;17.078;2024-03-23T14:56:39;5.40;99.90
21403;DHT22;10862;51.886;17.078;2024-03-23T14:59:04;5.60;99.90
21403;DHT22;10862;51.886;17.078;2024-03-23T15:01:31;5.40;99.90
21403;DHT22;10862;51.886;17.078;2024-03-23T15:03:57;5.40;99.90
21403;DHT22;10862;51.886;17.078;2024-03-23T15:06:22;5.30;99.90
21403;DHT22;10862;51.886;17.078;2024-03-23T15:08:51;5.30;99.90
21403;DHT22;10862;51.886;17.078;2024-03-23T15:11:16;5.30;99.90
21403;DHT22;10862;51.886;17.078;2024-03-23T15:13:44;5.20;99.90
21403;DHT22;10862;51.886;17.078;2024-03-23T15:16:10;5.20;99.90
21403;DHT22;10862;51.886;17.078;2024-03-23T15:18:35;5.10;99.90
21403;DHT22;10862;51.886;17.078;2024-03-23T15:21:01;5.10;99.90
21403;DHT22;10862;51.886;17.078;2024-03-23T15:23:28;5.20;99.90
21403;DHT22;10862;51.886;17.078;2024-03-23T15:28:51;5.20;99.90
21403;DHT22;10862;51.886;17.078;2024-03-23T15:31:45;5.10;99.90
21403;DHT22;10862;51.886;17.078;2024-03-23T15:34:11;5.10;99.90
21403;DHT22;10862;51.886;17.078;2024-03-23T15:36:37;5.10;99.90
21403;DHT22;10862;51.886;17.078;2024-03-23T15:39:05;5.10;99.90
21403;DHT22;10862;51.886;17.078;2024-03-23T15:41:31;5.10;99.90
21403;DHT22;10862;51.886;17.078;2024-03-23T15:43:59;5.10;99.90
21403;DHT22;10862;51.886;17.078;2024-03-23T15:46:24;5.00;99.90
21403;DHT22;10862;51.886;17.078;2024-03-23T15:48:50;5.10;99.90
21403;DHT22;10862;51.886;17.078;2024-03-23T15:51:16;5.10;99.90
21403;DHT22;10862;51.886;17.078;2024-03-23T15:53:43;5.00;99.90
21403;DHT22;10862;51.886;17.078;2024-03-23T15:56:09;5.10;99.90
21403;DHT22;10862;51.886;17.078;2024-03-23T15:58:35;5.00;99.90
21403;DHT22;10862;51.886;17.078;2024-03-23T16:01:04;4.90;99.90
21403;DHT22;10862;51.886;17.078;2024-03-23T16:03:30;5.00;99.90
21403;DHT22;10862;51.886;17.078;2024-03-23T16:05:58;4.90;99.90
21403;DHT22;10862;51.886;17.078;2024-03-23T16:08:24;4.90;99.90
21403;DHT22;10862;51.886;17.078;2024-03-23T16:10:49;5.00;99.90
21403;DHT22;10862;51.886;17.078;2024-03-23T16:13:15;5.10;99.90
21403;DHT22;10862;51.886;17.078;2024-03-23T16:15:41;5.10;99.90
21403;DHT22;10862;51.886;17.078;2024-03-23T16:18:06;5.00;99.90
21403;DHT22;10862;51.886;17.078;2024-03-23T16:20:32;5.00;99.90
21403;DHT22;10862;51.886;17.078;2024-03-23T16:23:02;5.10;99.90
21403;DHT22;10862;51.886;17.078;2024-03-23T16:25:28;5.00;99.90
21403;DHT22;10862;51.886;17.078;2024-03-23T16:27:54;5.10;99.90
21403;DHT22;10862;51.886;17.078;2024-03-23T16:30:19;5.20;99.90
21403;DHT22;10862;51.886;17.078;2024-03-23T16:32:46;5.20;99.90
21403;DHT22;10862;51.886;17.078;2024-03-23T16:35:12;5.30;99.90
21403;DHT22;10862;51.886;17.078;2024-03-23T16:37:37;5.20;99.90
21403;DHT22;10862;51.886;17.078;2024-03-23T16:40:03;5.30;99.90
21403;DHT22;10862;51.886;17.078;2024-03-23T16:42:29;5.30;99.90
21403;DHT22;10862;51.886;17.078;2024-03-23T16:44:55;5.30;99.90
21403;DHT22;10862;51.886;17.078;2024-03-23T16:47:20;5.30;99.90
21403;DHT22;10862;51.886;17.078;2024-03-23T16:49:46;5.40;99.90
21403;DHT22;10862;51.886;17.078;2024-03-23T16:52:11;5.30;99.90
21403;DHT22;10862;51.886;17.078;2024-03-23T16:54:37;5.30;99.90
21403;DHT22;10862;51.886;17.078;2024-03-23T16:57:03;5.30;99.90
21403;DHT22;10862;51.886;17.078;2024-03-23T16:59:28;5.20;99.90
21403;DHT22;10862;51.886;17.078;2024-03-23T17:01:54;5.20;99.90
21403;DHT22;10862;51.886;17.078;2024-03-23T17:04:21;5.20;99.90
21403;DHT22;10862;51.886;17.078;2024-03-23T17:06:46;5.30;99.90
21403;DHT22;10862;51.886;17.078;2024-03-23T17:09:12;5.30;99.90
21403;DHT22;10862;51.886;17.078;2024-03-23T17:11:38;5.30;99.90
21403;DHT22;10862;51.886;17.078;2024-03-23T17:14:07;5.30;99.90
21403;DHT22;10862;51.886;17.078;2024-03-23T17:16:35;5.30;99.90
21403;DHT22;10862;51.886;17.078;2024-03-23T17:19:01;5.20;99.90
21403;DHT22;10862;51.886;17.078;2024-03-23T17:21:27;5.20;99.90
21403;DHT22;10862;51.886;17.078;2024-03-23T17:23:53;5.20;99.90